createdAt,value
2023-02-28T00:00:41.470Z,2.33
2023-02-28T00:03:09.095Z,1.40
2023-02-28T00:05:36.765Z,1.70
2023-02-28T00:08:04.551Z,1.35
2023-02-28T00:10:33.205Z,1.48
2023-02-28T00:13:03.285Z,1.80
2023-02-28T00:15:30.987Z,1.70
2023-02-28T00:18:00.086Z,1.45
2023-02-28T00:20:27.999Z,1.55
2023-02-28T00:22:56.018Z,1.23
2023-02-28T00:25:26.698Z,1.52
2023-02-28T00:27:54.354Z,1.50
2023-02-28T00:30:24.495Z,1.95
2023-02-28T00:32:52.717Z,1.73
2023-02-28T00:35:21.721Z,1.52
2023-02-28T00:37:50.540Z,2.00
2023-02-28T00:40:18.609Z,1.65
2023-02-28T00:42:46.197Z,2.00
2023-02-28T00:45:13.791Z,1.73
2023-02-28T00:47:41.396Z,1.88
2023-02-28T00:50:10.643Z,1.65
2023-02-28T00:52:39.526Z,1.75
2023-02-28T00:55:07.596Z,1.80
2023-02-28T00:57:35.188Z,1.88
2023-02-28T01:00:02.993Z,1.90
2023-02-28T01:02:30.615Z,1.80
2023-02-28T01:04:58.734Z,1.80
2023-02-28T01:07:26.403Z,1.90
2023-02-28T01:09:56.335Z,1.65
2023-02-28T01:12:23.874Z,1.83
2023-02-28T01:14:51.480Z,1.45
2023-02-28T01:17:19.578Z,1.50
2023-02-28T01:19:47.191Z,1.60
2023-02-28T01:22:14.904Z,1.63
2023-02-28T01:24:43.681Z,1.65
2023-02-28T01:27:15.372Z,2.05
2023-02-28T01:29:42.916Z,1.60
2023-02-28T01:32:10.807Z,1.77
2023-02-28T01:34:38.668Z,1.20
2023-02-28T01:37:06.344Z,1.48
2023-02-28T01:39:34.126Z,1.77
2023-02-28T01:42:01.674Z,1.60
2023-02-28T01:45:03.417Z,1.75
2023-02-28T01:47:35.841Z,1.83
2023-02-28T01:50:09.409Z,1.50
2023-02-28T01:52:37.808Z,1.73
2023-02-28T01:55:09.042Z,1.85
2023-02-28T01:57:43.459Z,1.85
2023-02-28T02:00:16.026Z,1.63
2023-02-28T02:02:51.201Z,1.98
2023-02-28T02:05:21.800Z,1.60
2023-02-28T02:07:54.014Z,1.67
2023-02-28T02:10:24.214Z,1.67
2023-02-28T02:13:11.009Z,1.90
2023-02-28T02:15:48.238Z,1.77
2023-02-28T02:18:25.968Z,2.17
2023-02-28T02:21:21.664Z,1.80
2023-02-28T02:24:13.619Z,1.60
2023-02-28T02:26:57.438Z,1.75
2023-02-28T02:30:18.829Z,1.75
2023-02-28T02:33:20.510Z,1.70
2023-02-28T02:35:56.430Z,2.10
2023-02-28T02:38:35.189Z,2.10
2023-02-28T02:41:10.591Z,1.60
2023-02-28T02:43:42.784Z,1.52
2023-02-28T02:46:14.152Z,1.98
2023-02-28T02:48:44.198Z,1.50
2023-02-28T02:51:17.352Z,2.40
2023-02-28T02:56:21.665Z,1.58
2023-02-28T02:58:51.762Z,1.98
2023-02-28T03:01:28.732Z,1.85
2023-02-28T03:03:59.310Z,1.52
2023-02-28T03:06:28.869Z,1.50
2023-02-28T03:08:56.596Z,1.45
2023-02-28T03:11:24.782Z,1.88
2023-02-28T03:14:22.744Z,1.58
2023-02-28T03:17:13.032Z,1.67
2023-02-28T03:19:49.337Z,1.88
2023-02-28T03:22:39.581Z,2.03
2023-02-28T03:25:11.534Z,2.10
2023-02-28T03:27:42.903Z,1.85
2023-02-28T03:30:18.205Z,2.00
2023-02-28T03:32:54.848Z,1.95
2023-02-28T03:35:26.485Z,2.20
2023-02-28T03:38:02.528Z,2.00
2023-02-28T03:40:33.844Z,1.73
2023-02-28T03:43:08.939Z,1.90
2023-02-28T03:45:40.423Z,2.17
2023-02-28T03:48:13.764Z,2.50
2023-02-28T03:50:42.757Z,2.13
2023-02-28T03:53:15.544Z,2.00
2023-02-28T03:55:53.481Z,2.33
2023-02-28T03:58:26.735Z,2.25
2023-02-28T04:03:25.483Z,2.00
2023-02-28T04:05:55.825Z,2.08
2023-02-28T04:08:24.978Z,2.30
2023-02-28T04:10:58.084Z,2.45
2023-02-28T04:13:25.680Z,2.60
2023-02-28T04:15:53.303Z,2.30
2023-02-28T04:18:20.910Z,2.25
2023-02-28T04:20:48.508Z,2.28
2023-02-28T04:23:16.100Z,2.40
2023-02-28T04:25:45.175Z,2.30
2023-02-28T04:28:12.711Z,2.38
2023-02-28T04:30:41.203Z,2.75
2023-02-28T04:33:08.825Z,2.33
2023-02-28T04:35:36.414Z,2.25
2023-02-28T04:38:04.044Z,2.25
2023-02-28T04:40:31.650Z,2.40
2023-02-28T04:43:00.585Z,2.55
2023-02-28T04:45:31.209Z,2.30
2023-02-28T04:47:58.827Z,2.97
2023-02-28T04:50:26.382Z,2.65
2023-02-28T04:52:53.936Z,2.90
2023-02-28T04:55:21.446Z,2.92
2023-02-28T04:57:49.220Z,2.30
2023-02-28T05:00:18.956Z,2.33
2023-02-28T05:02:46.561Z,3.70
2023-02-28T05:05:17.561Z,2.70
2023-02-28T05:07:45.167Z,2.67
2023-02-28T05:10:13.391Z,2.70
2023-02-28T05:12:41.025Z,2.50
2023-02-28T05:15:14.325Z,3.17
2023-02-28T05:17:43.574Z,3.25
2023-02-28T05:20:15.713Z,2.85
2023-02-28T05:22:45.381Z,2.58
2023-02-28T05:25:17.307Z,2.97
2023-02-28T05:27:45.129Z,2.88
2023-02-28T05:30:14.725Z,3.30
2023-02-28T05:32:44.550Z,2.33
2023-02-28T05:35:13.312Z,2.85
2023-02-28T05:37:41.388Z,2.50
2023-02-28T05:40:11.228Z,2.78
2023-02-28T05:42:39.025Z,2.88
2023-02-28T05:45:08.371Z,2.80
2023-02-28T05:47:36.198Z,2.25
2023-02-28T05:50:05.614Z,2.60
2023-02-28T05:52:33.194Z,3.28
2023-02-28T05:55:00.698Z,3.00
2023-02-28T05:57:28.243Z,3.20
2023-02-28T05:59:55.887Z,3.17
2023-02-28T06:02:23.502Z,2.65
2023-02-28T06:04:51.081Z,3.42
2023-02-28T06:07:20.023Z,2.70
2023-02-28T06:09:47.554Z,2.90
2023-02-28T06:12:15.148Z,3.00
2023-02-28T06:14:42.697Z,3.42
2023-02-28T06:17:11.150Z,3.47
2023-02-28T06:19:39.641Z,2.90
2023-02-28T06:22:07.219Z,3.55
2023-02-28T06:24:36.114Z,3.15
2023-02-28T06:27:05.937Z,3.03
2023-02-28T06:29:33.876Z,2.53
2023-02-28T06:32:01.533Z,3.05
2023-02-28T06:34:29.127Z,2.78
2023-02-28T06:36:56.762Z,3.17
2023-02-28T06:39:24.361Z,3.17
2023-02-28T06:41:56.107Z,3.55
2023-02-28T06:44:25.332Z,2.25
2023-02-28T06:46:53.005Z,2.70
2023-02-28T06:49:20.653Z,2.72
2023-02-28T06:51:48.170Z,3.08
2023-02-28T06:54:18.339Z,2.75
2023-02-28T06:56:45.881Z,3.33
2023-02-28T06:59:15.318Z,5.00
2023-02-28T07:01:42.928Z,3.50
2023-02-28T07:04:10.496Z,3.50
2023-02-28T07:06:38.142Z,3.15
2023-02-28T07:09:06.029Z,3.05
2023-02-28T07:11:33.766Z,3.55
2023-02-28T07:14:01.538Z,4.63
2023-02-28T07:16:30.627Z,4.07
2023-02-28T07:18:58.355Z,3.67
2023-02-28T07:21:26.290Z,3.53
2023-02-28T07:23:53.890Z,2.80
2023-02-28T07:26:22.920Z,3.55
2023-02-28T07:28:51.145Z,3.60
2023-02-28T07:31:19.443Z,2.80
2023-02-28T07:33:48.564Z,3.58
2023-02-28T07:36:19.436Z,3.38
2023-02-28T07:38:49.046Z,3.03
2023-02-28T07:41:17.435Z,3.38
2023-02-28T07:43:45.521Z,3.00
2023-02-28T07:46:15.942Z,3.17
2023-02-28T07:48:43.881Z,3.35
2023-02-28T07:51:13.163Z,3.50
2023-02-28T07:53:40.792Z,3.17
2023-02-28T07:56:09.092Z,3.47
2023-02-28T07:58:36.891Z,3.60
2023-02-28T08:01:08.885Z,3.33
2023-02-28T08:03:37.343Z,3.58
2023-02-28T08:06:05.727Z,3.05
2023-02-28T08:08:34.743Z,3.80
2023-02-28T08:11:03.782Z,3.75
2023-02-28T08:13:32.176Z,4.30
2023-02-28T08:16:00.000Z,3.75
2023-02-28T08:18:27.566Z,4.03
2023-02-28T08:20:55.291Z,4.15
2023-02-28T08:23:22.819Z,3.22
2023-02-28T08:25:56.552Z,3.45
2023-02-28T08:28:26.093Z,3.70
2023-02-28T08:30:54.745Z,3.58
2023-02-28T08:33:22.613Z,3.60
2023-02-28T08:35:50.350Z,3.65
2023-02-28T08:38:17.963Z,3.70
2023-02-28T08:40:45.490Z,3.42
2023-02-28T08:43:14.598Z,3.97
2023-02-28T08:45:42.408Z,3.90
2023-02-28T08:48:10.132Z,3.45
2023-02-28T08:50:37.730Z,3.60
2023-02-28T08:53:05.278Z,3.50
2023-02-28T08:55:32.858Z,3.72
2023-02-28T08:58:02.089Z,3.83
2023-02-28T09:00:30.958Z,3.83
2023-02-28T09:02:58.513Z,4.30
2023-02-28T09:05:26.144Z,3.75
2023-02-28T09:07:53.708Z,4.32
2023-02-28T09:10:21.550Z,3.92
2023-02-28T09:12:49.158Z,4.22
2023-02-28T09:15:16.799Z,4.20
2023-02-28T09:17:47.002Z,4.50
2023-02-28T09:20:15.754Z,4.30
2023-02-28T09:22:43.303Z,5.03
2023-02-28T09:25:10.929Z,4.70
2023-02-28T09:27:38.512Z,4.43
2023-02-28T09:30:07.229Z,4.50
2023-02-28T09:32:34.814Z,4.70
2023-02-28T09:35:03.745Z,4.18
2023-02-28T09:37:32.110Z,5.00
2023-02-28T09:39:59.938Z,4.50
2023-02-28T09:42:35.363Z,4.25
2023-02-28T09:45:08.666Z,4.00
2023-02-28T09:50:19.313Z,4.00
2023-02-28T09:52:48.984Z,4.07
2023-02-28T09:55:24.293Z,4.55
2023-02-28T09:57:53.630Z,4.55
2023-02-28T10:00:25.361Z,4.35
2023-02-28T10:03:26.298Z,4.55
2023-02-28T10:06:00.947Z,4.57
2023-02-28T10:08:32.359Z,4.40
2023-02-28T10:11:05.303Z,4.65
2023-02-28T10:13:37.453Z,4.47
2023-02-28T10:16:10.287Z,4.70
2023-02-28T10:18:45.010Z,4.50
2023-02-28T10:21:22.458Z,4.57
2023-02-28T10:23:51.527Z,4.30
2023-02-28T10:26:19.932Z,8.50
2023-02-28T10:28:47.580Z,5.30
2023-02-28T10:31:19.423Z,7.07
2023-02-28T10:33:47.337Z,4.93
2023-02-28T10:36:18.878Z,5.70
2023-02-28T10:38:48.165Z,5.40
2023-02-28T10:41:18.485Z,4.55
2023-02-28T10:43:46.822Z,4.80
2023-02-28T10:46:27.136Z,6.07
2023-02-28T10:49:05.301Z,5.70
2023-02-28T10:51:40.814Z,5.15
2023-02-28T10:54:17.969Z,5.22
2023-02-28T10:56:45.712Z,4.60
2023-02-28T10:59:30.726Z,4.93
2023-02-28T11:01:58.830Z,5.25
2023-02-28T11:04:37.574Z,4.53
2023-02-28T11:07:08.474Z,5.13
2023-02-28T11:09:39.897Z,4.97
2023-02-28T11:12:10.282Z,5.57
2023-02-28T11:14:49.055Z,5.03
2023-02-28T11:17:24.987Z,4.90
2023-02-28T11:19:57.182Z,4.75
2023-02-28T11:22:30.046Z,4.47
2023-02-28T11:25:01.508Z,4.65
2023-02-28T11:27:48.083Z,6.53
2023-02-28T11:30:36.774Z,5.35
2023-02-28T11:33:23.328Z,4.75
2023-02-28T11:35:52.412Z,4.70
2023-02-28T11:38:21.497Z,4.70
2023-02-28T11:41:06.912Z,5.50
2023-02-28T11:43:47.950Z,5.10
2023-02-28T11:46:25.626Z,5.93
2023-02-28T11:49:01.209Z,5.72
2023-02-28T11:51:32.976Z,5.05
2023-02-28T11:54:17.180Z,5.63
2023-02-28T11:56:48.786Z,4.80
2023-02-28T11:59:45.192Z,4.82
2023-02-28T12:02:25.404Z,5.18
2023-02-28T12:05:10.107Z,5.22
2023-02-28T12:07:47.658Z,5.20
2023-02-28T12:10:23.381Z,5.20
2023-02-28T12:13:07.405Z,5.20
2023-02-28T12:15:51.459Z,5.10
2023-02-28T12:18:32.511Z,5.53
2023-02-28T12:21:06.594Z,5.30
2023-02-28T12:23:54.657Z,5.50
2023-02-28T12:26:33.836Z,6.95
2023-02-28T12:29:06.647Z,6.55
2023-02-28T12:31:38.424Z,5.28
2023-02-28T12:34:11.870Z,5.78
2023-02-28T12:39:14.917Z,5.22
2023-02-28T12:41:47.803Z,4.75
2023-02-28T12:44:21.096Z,5.68
2023-02-28T12:46:52.471Z,4.68
2023-02-28T12:49:26.696Z,5.18
2023-02-28T12:51:54.968Z,5.60
2023-02-28T12:54:29.026Z,5.38
2023-02-28T12:57:05.796Z,5.07
2023-02-28T12:59:38.727Z,5.68
2023-02-28T13:03:00.587Z,5.32
2023-02-28T13:05:47.266Z,5.00
2023-02-28T13:08:40.102Z,5.03
2023-02-28T13:11:21.007Z,4.88
2023-02-28T13:13:58.638Z,5.18
2023-02-28T13:16:26.292Z,4.93
2023-02-28T13:19:11.323Z,4.60
2023-02-28T13:21:46.289Z,5.13
2023-02-28T13:24:43.456Z,4.95
2023-02-28T13:27:36.213Z,4.85
2023-02-28T13:30:42.729Z,4.32
2023-02-28T13:33:29.067Z,5.05
2023-02-28T13:36:12.985Z,5.40
2023-02-28T13:38:42.797Z,4.88
2023-02-28T13:41:48.842Z,5.03
2023-02-28T13:44:19.216Z,5.30
2023-02-28T13:47:24.678Z,5.18
2023-02-28T13:49:54.344Z,5.35
2023-02-28T13:52:25.426Z,5.20
2023-02-28T13:55:02.432Z,5.70
2023-02-28T13:57:44.415Z,5.07
2023-02-28T14:00:25.214Z,5.20
2023-02-28T14:03:14.087Z,5.10
2023-02-28T14:05:42.139Z,5.47
2023-02-28T14:08:17.855Z,5.20
2023-02-28T14:10:49.569Z,5.70
2023-02-28T14:13:46.411Z,9.63
2023-02-28T14:16:16.205Z,5.93
2023-02-28T14:18:51.822Z,6.07
2023-02-28T14:21:26.613Z,5.68
2023-02-28T14:24:18.592Z,5.60
2023-02-28T14:27:15.721Z,5.57
2023-02-28T14:30:17.229Z,5.57
2023-02-28T14:32:53.099Z,5.50
2023-02-28T14:35:47.931Z,5.38
2023-02-28T14:38:22.153Z,5.25
2023-02-28T14:40:53.213Z,6.75
2023-02-28T14:43:23.758Z,5.88
2023-02-28T14:45:56.034Z,5.07
2023-02-28T14:48:26.141Z,7.10
2023-02-28T14:50:55.830Z,6.53
2023-02-28T14:53:27.054Z,4.93
2023-02-28T14:55:58.251Z,5.30
2023-02-28T14:58:29.361Z,5.77
2023-02-28T15:01:00.794Z,5.40
2023-02-28T15:03:34.063Z,5.22
2023-02-28T15:08:35.938Z,5.18
2023-02-28T15:11:06.858Z,6.10
2023-02-28T15:13:39.630Z,6.00
2023-02-28T15:16:13.757Z,5.22
2023-02-28T15:18:48.986Z,6.28
2023-02-28T15:21:19.267Z,5.45
2023-02-28T15:23:51.241Z,5.82
2023-02-28T15:26:22.747Z,5.93
2023-02-28T15:28:53.195Z,5.68
2023-02-28T15:31:27.748Z,6.18
2023-02-28T15:33:56.791Z,5.15
2023-02-28T15:36:28.750Z,5.00
2023-02-28T15:39:01.591Z,5.35
2023-02-28T15:41:39.886Z,7.07
2023-02-28T15:44:26.778Z,5.80
2023-02-28T15:47:03.590Z,5.63
2023-02-28T15:49:45.061Z,5.97
2023-02-28T15:52:17.640Z,5.93
2023-02-28T15:54:46.673Z,5.88
2023-02-28T15:57:19.264Z,6.07
2023-02-28T15:59:53.018Z,5.83
2023-02-28T16:02:24.218Z,6.50
2023-02-28T16:05:05.089Z,6.03
2023-02-28T16:07:33.209Z,6.22
2023-02-28T16:10:01.569Z,6.13
2023-02-28T16:12:31.878Z,6.00
2023-02-28T16:15:03.736Z,6.10
2023-02-28T16:17:36.660Z,5.93
2023-02-28T16:20:13.923Z,5.35
2023-02-28T16:22:42.879Z,5.80
2023-02-28T16:25:13.911Z,5.68
2023-02-28T16:27:42.247Z,6.75
2023-02-28T16:30:19.917Z,6.60
2023-02-28T16:32:50.025Z,6.35
2023-02-28T16:35:18.928Z,6.22
2023-02-28T16:37:47.263Z,5.60
2023-02-28T16:40:16.887Z,5.75
2023-02-28T16:42:47.257Z,6.15
2023-02-28T16:45:21.105Z,6.38
2023-02-28T16:47:50.785Z,5.47
2023-02-28T16:50:20.723Z,6.57
2023-02-28T16:52:48.783Z,5.57
2023-02-28T16:55:16.882Z,6.10
2023-02-28T16:57:46.011Z,6.32
2023-02-28T17:00:15.884Z,6.35
2023-02-28T17:02:43.671Z,5.70
2023-02-28T17:05:15.040Z,6.03
2023-02-28T17:07:44.831Z,6.80
2023-02-28T17:10:18.320Z,6.60
2023-02-28T17:12:46.357Z,6.82
2023-02-28T17:15:15.903Z,8.60
2023-02-28T17:17:44.829Z,6.40
2023-02-28T17:20:16.322Z,6.43
2023-02-28T17:22:44.111Z,6.18
2023-02-28T17:25:12.870Z,6.28
2023-02-28T17:27:40.555Z,6.90
2023-02-28T17:30:16.948Z,6.75
2023-02-28T17:32:44.743Z,6.35
2023-02-28T17:35:12.680Z,6.90
2023-02-28T17:37:42.100Z,6.60
2023-02-28T17:40:15.988Z,7.03
2023-02-28T17:42:43.658Z,6.40
2023-02-28T17:45:12.301Z,7.25
2023-02-28T17:47:40.853Z,7.13
2023-02-28T17:50:13.457Z,7.38
2023-02-28T17:52:42.334Z,7.47
2023-02-28T17:55:11.516Z,8.05
2023-02-28T17:57:39.349Z,8.52
2023-02-28T18:00:08.549Z,7.57
2023-02-28T18:02:39.939Z,7.55
2023-02-28T18:05:08.987Z,6.78
2023-02-28T18:07:38.291Z,7.03
2023-02-28T18:10:08.878Z,8.15
2023-02-28T18:12:36.430Z,7.40
2023-02-28T18:15:04.280Z,7.13
2023-02-28T18:17:31.809Z,8.02
2023-02-28T18:20:00.181Z,8.48
2023-02-28T18:22:27.757Z,7.65
2023-02-28T18:24:55.329Z,7.32
2023-02-28T18:27:24.262Z,6.85
2023-02-28T18:29:52.402Z,7.97
2023-02-28T18:32:20.037Z,7.75
2023-02-28T18:34:47.671Z,8.20
2023-02-28T18:37:16.045Z,7.93
2023-02-28T18:39:43.606Z,8.30
2023-02-28T18:42:11.195Z,8.52
2023-02-28T18:44:40.780Z,8.80
2023-02-28T18:47:08.506Z,10.00
2023-02-28T18:49:37.871Z,8.65
2023-02-28T18:52:05.705Z,8.70
2023-02-28T18:54:33.300Z,8.25
2023-02-28T18:57:00.885Z,10.93
2023-02-28T18:59:28.559Z,9.20
2023-02-28T19:01:58.392Z,8.43
2023-02-28T19:04:25.975Z,8.20
2023-02-28T19:06:53.508Z,8.65
2023-02-28T19:09:21.381Z,8.27
2023-02-28T19:11:49.437Z,8.63
2023-02-28T19:14:18.180Z,8.35
2023-02-28T19:16:47.150Z,9.20
2023-02-28T19:19:16.207Z,8.63
2023-02-28T19:21:43.933Z,8.80
2023-02-28T19:24:12.274Z,8.20
2023-02-28T19:30:54.813Z,8.73
2023-02-28T19:33:22.426Z,9.10
2023-02-28T19:35:51.412Z,7.80
2023-02-28T19:38:19.195Z,7.72
2023-02-28T19:40:46.914Z,6.97
2023-02-28T19:43:14.488Z,7.20
2023-02-28T19:45:42.194Z,7.47
2023-02-28T19:48:09.842Z,6.93
2023-02-28T19:50:38.466Z,7.35
2023-02-28T19:53:07.412Z,7.80
2023-02-28T19:55:35.012Z,6.78
2023-02-28T19:58:02.653Z,7.03
2023-02-28T20:00:30.202Z,7.50
2023-02-28T20:02:57.729Z,7.35
2023-02-28T20:05:25.281Z,7.22
2023-02-28T20:07:52.884Z,7.00
2023-02-28T20:10:21.830Z,7.35
2023-02-28T20:12:49.465Z,7.65
2023-02-28T20:15:17.316Z,6.65
2023-02-28T20:17:46.587Z,7.07
2023-02-28T20:20:14.253Z,6.55
2023-02-28T20:22:41.777Z,7.28
2023-02-28T20:25:11.408Z,7.18
2023-02-28T20:27:40.343Z,6.95
2023-02-28T20:30:09.564Z,7.47
2023-02-28T20:32:38.879Z,9.73
2023-02-28T20:35:08.568Z,7.78
2023-02-28T20:37:36.559Z,7.50
2023-02-28T20:40:04.927Z,7.45
2023-02-28T20:42:32.742Z,7.70
2023-02-28T20:45:01.676Z,7.60
2023-02-28T20:47:29.340Z,7.18
2023-02-28T20:49:56.976Z,8.15
2023-02-28T20:52:24.580Z,7.43
2023-02-28T20:54:52.860Z,7.75
2023-02-28T20:57:20.656Z,8.13
2023-02-28T20:59:48.226Z,7.25
2023-02-28T21:02:21.222Z,7.40
2023-02-28T21:04:48.832Z,8.43
2023-02-28T21:07:16.388Z,7.63
2023-02-28T21:09:43.986Z,7.93
2023-02-28T21:12:11.631Z,8.27
2023-02-28T21:14:39.245Z,7.45
2023-02-28T21:17:10.409Z,7.35
2023-02-28T21:19:39.334Z,7.10
2023-02-28T21:22:06.999Z,7.40
2023-02-28T21:24:34.583Z,7.55
2023-02-28T21:27:02.153Z,7.80
2023-02-28T21:29:29.761Z,7.85
2023-02-28T21:31:57.498Z,7.78
2023-02-28T21:34:26.920Z,7.00
2023-02-28T21:36:55.870Z,7.45
2023-02-28T21:39:28.758Z,6.57
2023-02-28T21:42:03.399Z,7.50
2023-02-28T21:44:32.353Z,7.60
2023-02-28T21:47:02.720Z,7.70
2023-02-28T21:49:30.660Z,9.27
2023-02-28T21:51:59.898Z,8.00
2023-02-28T21:54:27.757Z,7.80
2023-02-28T21:56:56.378Z,12.30
2023-02-28T21:59:24.009Z,11.65
2023-02-28T22:01:51.930Z,9.38
2023-02-28T22:04:21.952Z,8.15
2023-02-28T22:06:52.454Z,9.57
2023-02-28T22:09:21.894Z,8.05
2023-02-28T22:11:49.578Z,7.43
2023-02-28T22:14:17.187Z,8.23
2023-02-28T22:16:54.294Z,8.77
2023-02-28T22:19:24.080Z,9.23
2023-02-28T22:21:53.655Z,8.23
2023-02-28T22:24:24.236Z,9.65
2023-02-28T22:26:52.824Z,8.52
2023-02-28T22:29:21.036Z,9.77
2023-02-28T22:31:48.817Z,10.48
2023-02-28T22:34:16.437Z,12.98
2023-02-28T22:36:44.927Z,10.95
2023-02-28T22:39:13.295Z,10.40
2023-02-28T22:41:42.208Z,10.18
2023-02-28T22:44:09.791Z,10.45
2023-02-28T22:46:37.842Z,8.43
2023-02-28T22:49:06.883Z,9.68
2023-02-28T22:51:35.492Z,9.65
2023-02-28T22:54:04.235Z,9.38
2023-02-28T22:56:32.170Z,10.18
2023-02-28T22:59:02.099Z,9.45
2023-02-28T23:01:32.801Z,10.48
2023-02-28T23:04:02.052Z,8.55
2023-02-28T23:06:31.581Z,9.40
2023-02-28T23:09:02.032Z,9.57
2023-02-28T23:11:31.972Z,10.00
2023-02-28T23:14:01.216Z,10.15
2023-02-28T23:16:31.013Z,9.48
2023-02-28T23:19:00.126Z,9.77
2023-02-28T23:21:28.188Z,9.88
2023-02-28T23:23:56.259Z,9.63
2023-02-28T23:26:23.856Z,9.35
2023-02-28T23:28:51.616Z,9.68
2023-02-28T23:31:21.145Z,9.75
2023-02-28T23:33:49.389Z,10.38
2023-02-28T23:36:17.318Z,10.45
2023-02-28T23:38:48.268Z,11.23
2023-02-28T23:41:16.558Z,11.10
2023-02-28T23:43:44.397Z,10.60
2023-02-28T23:46:13.420Z,9.90
2023-02-28T23:48:42.700Z,10.00
2023-02-28T23:51:11.776Z,10.40
2023-02-28T23:53:41.662Z,10.27
2023-02-28T23:56:11.603Z,11.00
2023-02-28T23:58:39.360Z,11.10
